Time;durP1;ratioP1;P1;durP2;ratioP2;P2;SDS_P1;SDS_P2;PMS_P1;PMS_P2;Temp;Humidity;BMP_temperature;BMP_pressure;BME280_temperature;BME280_humidity;BME280_pressure;Samples;Min_cycle;Max_cycle;Signal;HPM_P1;HPM_P2
2022/07/07 00:03:20;;;;;;;4.30;3.85;;;;;;;13.99;69.48;100732.30;3546190;77;20938;-76
2022/07/07 00:08:12;;;;;;;6.97;3.33;;;;;;;13.95;69.53;100735.78;3637374;77;21430;-77
2022/07/07 00:13:03;;;;;;;3.85;3.40;;;;;;;13.87;69.66;100728.34;3614689;77;21512;-77
2022/07/07 00:17:54;;;;;;;5.22;3.92;;;;;;;13.84;69.89;100735.75;3514881;78;22453;-76
2022/07/07 00:22:46;;;;;;;4.33;3.62;;;;;;;13.81;70.16;100728.33;3653203;77;21420;-76
2022/07/07 00:27:37;;;;;;;3.85;3.35;;;;;;;13.79;70.10;100728.73;3626899;78;21362;-76
2022/07/07 00:32:28;;;;;;;4.85;3.87;;;;;;;13.77;70.36;100728.75;3573458;78;20966;-76
2022/07/07 00:37:19;;;;;;;5.90;3.47;;;;;;;13.78;70.58;100729.62;3643993;77;21527;-76
2022/07/07 00:42:14;;;;;;;6.30;3.20;;;;;;;13.79;70.82;100728.73;3582496;78;20910;-76
2022/07/07 00:47:07;;;;;;;5.05;4.30;;;;;;;13.83;71.00;100723.53;3607683;77;20965;-76
2022/07/07 00:51:59;;;;;;;3.52;2.87;;;;;;;13.84;71.08;100724.40;3623209;77;21033;-77
2022/07/07 00:56:52;;;;;;;3.58;3.22;;;;;;;13.87;71.23;100724.42;3639546;76;20965;-76
2022/07/07 01:01:43;;;;;;;4.70;3.40;;;;;;;13.91;71.31;100725.75;3590143;76;20959;-77
2022/07/07 01:06:35;;;;;;;5.45;3.22;;;;;;;13.92;71.37;100727.92;3633820;75;21001;-77
2022/07/07 01:11:27;;;;;;;3.67;2.98;;;;;;;13.95;71.50;100732.28;3688777;76;21552;-76
2022/07/07 01:16:18;;;;;;;6.60;3.30;;;;;;;13.97;71.50;100729.23;3629473;76;20943;-76
2022/07/07 01:21:13;;;;;;;3.40;3.10;;;;;;;13.99;71.61;100724.47;3686781;76;20957;-76
2022/07/07 01:26:04;;;;;;;4.97;2.65;;;;;;;14.02;71.66;100727.09;3635630;76;21476;-77
2022/07/07 01:30:58;;;;;;;3.37;3.08;;;;;;;14.02;71.80;100724.48;3614017;76;21012;-77
2022/07/07 01:35:49;;;;;;;4.97;2.95;;;;;;;14.02;71.71;100727.50;3607004;76;21268;-76
2022/07/07 01:40:40;;;;;;;5.17;2.90;;;;;;;14.01;71.77;100734.48;3674639;76;21876;-77
2022/07/07 01:45:31;;;;;;;3.87;3.58;;;;;;;14.01;71.81;100737.09;3613329;77;20933;-77
2022/07/07 01:50:23;;;;;;;3.47;3.10;;;;;;;13.98;72.07;100733.16;3668154;76;20954;-77
2022/07/07 01:55:14;;;;;;;3.17;2.70;;;;;;;13.99;72.18;100732.30;3616435;77;20997;-77
2022/07/07 02:00:08;;;;;;;2.90;2.58;;;;;;;14.01;72.29;100737.09;3665197;77;20947;-77
2022/07/07 02:04:59;;;;;;;4.00;3.00;;;;;;;14.03;72.20;100730.12;3638233;77;20947;-77
2022/07/07 02:09:50;;;;;;;2.95;2.60;;;;;;;14.00;72.17;100726.63;3691386;77;20969;-77
2022/07/07 02:14:41;;;;;;;4.17;2.95;;;;;;;13.99;72.11;100731.00;3671080;76;21471;-77
2022/07/07 02:19:33;;;;;;;5.35;3.22;;;;;;;13.97;72.23;100734.05;3675778;77;21964;-77
2022/07/07 02:24:24;;;;;;;3.40;2.77;;;;;;;13.97;72.36;100731.43;3615286;77;20941;-77
2022/07/07 02:29:15;;;;;;;2.77;2.52;;;;;;;13.96;72.35;100732.28;3617881;77;20981;-77
2022/07/07 02:34:06;;;;;;;2.58;2.37;;;;;;;13.92;72.40;100728.79;3589282;77;20980;-77
2022/07/07 02:38:57;;;;;;;3.37;2.30;;;;;;;13.91;72.63;100730.08;3645740;77;21806;-77
2022/07/07 02:43:48;;;;;;;3.65;2.67;;;;;;;13.91;72.52;100727.47;3665301;77;22110;-77
2022/07/07 02:48:40;;;;;;;3.75;2.62;;;;;;;13.89;72.65;100729.21;3661430;77;21016;-77
2022/07/07 02:53:33;;;;;;;4.90;2.17;;;;;;;13.89;72.75;100734.44;3659678;77;20962;-77
2022/07/07 02:58:25;;;;;;;3.17;2.83;;;;;;;13.90;72.71;100729.66;3626814;77;20926;-77
2022/07/07 03:03:18;;;;;;;2.92;2.10;;;;;;;13.91;72.71;100734.00;3621317;77;21583;-77
2022/07/07 03:08:10;;;;;;;2.37;2.12;;;;;;;13.95;72.71;100733.58;3658110;77;21149;-77
2022/07/07 03:13:01;;;;;;;3.75;2.60;;;;;;;13.96;72.79;100732.28;3592410;77;21130;-77
2022/07/07 03:17:53;;;;;;;3.15;2.47;;;;;;;13.96;72.54;100729.67;3598983;77;21498;-77
2022/07/07 03:22:44;;;;;;;3.12;2.45;;;;;;;13.98;72.61;100732.30;3599480;76;20981;-77
2022/07/07 03:27:36;;;;;;;2.77;2.50;;;;;;;13.98;72.55;100737.08;3596584;76;20913;-77
2022/07/07 03:32:27;;;;;;;2.37;2.17;;;;;;;14.01;72.66;100733.17;3610438;76;23805;-77
2022/07/07 03:37:19;;;;;;;4.63;2.30;;;;;;;14.03;72.64;100736.66;3633178;77;20988;-77
2022/07/07 03:42:10;;;;;;;2.42;2.22;;;;;;;14.11;72.90;100734.06;3637362;77;21729;-77
2022/07/07 03:47:01;;;;;;;3.25;2.50;;;;;;;14.17;72.79;100737.16;3626976;77;20961;-77
2022/07/07 03:51:53;;;;;;;1.82;1.72;;;;;;;14.21;72.82;100737.59;3645317;77;21435;-77
2022/07/07 03:56:44;;;;;;;4.05;2.20;;;;;;;14.29;72.77;100739.80;3626885;77;21127;-77
2022/07/07 04:01:36;;;;;;;3.02;2.00;;;;;;;14.36;72.73;100735.02;3662300;76;20950;-77
2022/07/07 04:06:30;;;;;;;2.62;2.27;;;;;;;14.49;72.49;100735.91;3584719;77;20909;-77
2022/07/07 04:11:20;;;;;;;2.55;2.33;;;;;;;14.59;72.40;100727.20;3649496;75;21497;-77
2022/07/07 04:16:12;;;;;;;3.98;2.05;;;;;;;14.67;72.65;100728.09;3654870;77;21494;-77
2022/07/07 04:21:03;;;;;;;2.45;2.25;;;;;;;14.81;72.63;100721.55;3664067;76;21865;-77
2022/07/07 04:25:55;;;;;;;2.52;2.08;;;;;;;14.92;72.65;100722.86;3606999;77;20930;-77
2022/07/07 04:30:46;;;;;;;4.28;2.33;;;;;;;15.05;72.48;100715.86;3638366;76;20988;-78
2022/07/07 04:35:37;;;;;;;2.50;2.17;;;;;;;15.19;72.45;100715.84;3576157;77;21512;-77
2022/07/07 04:40:29;;;;;;;1.80;1.70;;;;;;;15.31;72.11;100712.30;3539388;77;21102;-77
2022/07/07 04:45:20;;;;;;;2.60;1.90;;;;;;;15.46;71.54;100717.95;3628164;77;22223;-77
2022/07/07 04:50:12;;;;;;;3.85;1.77;;;;;;;15.69;71.58;100710.02;3698312;77;20909;-76
2022/07/07 04:55:05;;;;;;;3.25;1.57;;;;;;;15.87;70.72;100713.88;3656362;77;21353;-76
2022/07/07 04:59:57;;;;;;;1.98;1.70;;;;;;;16.07;70.48;100714.22;3593486;77;20931;-76
2022/07/07 05:04:49;;;;;;;3.30;1.42;;;;;;;16.29;70.47;100716.27;3612720;77;20923;-76
2022/07/07 05:09:40;;;;;;;1.57;1.40;;;;;;;16.42;68.87;100714.00;3588408;77;21808;-76
2022/07/07 05:14:31;;;;;;;4.58;1.60;;;;;;;16.65;68.17;100711.20;3585526;77;21057;-76
2022/07/07 05:19:22;;;;;;;3.50;1.62;;;;;;;16.81;67.46;100703.18;3641110;77;20941;-76
2022/07/07 05:24:14;;;;;;;8.35;1.60;;;;;;;17.02;67.91;100709.58;3617571;77;20966;-77
2022/07/07 05:29:05;;;;;;;6.00;1.72;;;;;;;17.22;67.48;100702.80;3527948;77;21023;-77
2022/07/07 05:33:56;;;;;;;6.15;1.75;;;;;;;17.37;66.37;100705.72;3564090;77;21334;-77
2022/07/07 05:38:48;;;;;;;2.10;1.15;;;;;;;17.51;65.42;100714.32;3559842;77;20950;-76
2022/07/07 05:43:40;;;;;;;1.52;1.22;;;;;;;17.67;64.74;100711.48;3619976;77;20978;-77
2022/07/07 05:48:31;;;;;;;5.25;1.50;;;;;;;17.83;64.46;100706.48;3624801;77;20955;-77
2022/07/07 05:53:22;;;;;;;3.50;1.55;;;;;;;18.06;63.84;100715.84;3594409;77;21757;-77
2022/07/07 05:58:13;;;;;;;2.52;1.25;;;;;;;18.19;63.33;100716.10;3593331;77;21149;-77
2022/07/07 06:03:05;;;;;;;1.87;1.32;;;;;;;18.35;62.73;100710.59;3621987;77;20938;-79
2022/07/07 06:07:56;;;;;;;3.45;1.90;;;;;;;18.58;62.33;100716.39;3579081;78;20986;-76
2022/07/07 06:12:48;;;;;;;2.30;1.67;;;;;;;18.68;61.22;100715.33;3568261;78;21036;-75
2022/07/07 06:17:40;;;;;;;2.62;1.32;;;;;;;18.83;61.24;100713.36;3591986;78;20968;-77
2022/07/07 06:22:31;;;;;;;3.67;1.17;;;;;;;18.95;61.42;100721.05;3573600;78;20955;-78
2022/07/07 06:27:22;;;;;;;2.00;1.25;;;;;;;19.07;60.43;100717.80;3587324;78;20958;-76
2022/07/07 06:32:16;;;;;;;5.37;1.60;;;;;;;19.27;59.83;100710.83;3572079;77;21432;-75
2022/07/07 06:37:08;;;;;;;3.37;1.32;;;;;;;19.38;59.82;100712.34;3621574;78;20903;-77
2022/07/07 06:41:59;;;;;;;3.17;1.30;;;;;;;19.56;58.72;100710.25;3556748;78;20960;-76
2022/07/07 06:46:52;;;;;;;2.87;1.57;;;;;;;19.76;58.55;100710.75;3598246;77;22532;-77
2022/07/07 06:51:43;;;;;;;4.93;1.60;;;;;;;20.03;57.42;100705.78;3604753;77;20924;-76
2022/07/07 06:56:34;;;;;;;2.60;1.30;;;;;;;20.49;57.23;100707.32;3590290;77;21592;-76
2022/07/07 07:01:26;;;;;;;1.30;1.20;;;;;;;21.08;56.23;100704.55;3594515;77;20954;-76
2022/07/07 07:06:19;;;;;;;3.10;1.22;;;;;;;21.12;54.79;100696.52;3596876;76;37702;-76
2022/07/07 07:11:11;;;;;;;2.37;1.00;;;;;;;21.23;55.16;100702.83;3648043;76;21043;-77
2022/07/07 07:16:02;;;;;;;2.97;1.40;;;;;;;21.40;54.74;100698.84;3671147;76;20968;-76
2022/07/07 07:20:53;;;;;;;1.77;1.50;;;;;;;21.52;53.70;100697.20;3609513;76;20959;-76
2022/07/07 07:25:44;;;;;;;1.67;1.10;;;;;;;21.60;52.69;100697.84;3652430;76;20969;-76
2022/07/07 07:30:36;;;;;;;7.45;1.82;;;;;;;22.20;51.38;100693.38;3572724;77;20999;-76
2022/07/07 07:35:27;;;;;;;1.70;1.20;;;;;;;22.88;50.78;100689.00;3617209;77;21115;-74
2022/07/07 07:40:19;;;;;;;1.37;1.05;;;;;;;26.58;46.24;100677.87;3674722;77;20990;-74
2022/07/07 07:45:10;;;;;;;1.92;1.20;;;;;;;27.94;44.29;100670.77;3688400;77;20953;-75
2022/07/07 07:50:01;;;;;;;1.47;1.30;;;;;;;28.54;43.56;100669.14;3626900;77;21030;-74
2022/07/07 07:54:53;;;;;;;1.92;1.10;;;;;;;30.69;39.04;100671.64;3630073;77;21001;-74
2022/07/07 07:59:44;;;;;;;2.75;1.47;;;;;;;29.14;39.17;100673.58;3626858;77;21852;-74
2022/07/07 08:04:35;;;;;;;2.27;1.30;;;;;;;27.65;41.95;100675.89;3673784;77;21546;-74
2022/07/07 08:09:27;;;;;;;1.57;0.80;;;;;;;26.60;42.62;100678.66;3602959;77;20993;-74
2022/07/07 08:14:18;;;;;;;2.87;1.57;;;;;;;25.67;43.06;100678.72;3619968;76;21448;-74
2022/07/07 08:19:09;;;;;;;5.05;1.30;;;;;;;24.96;43.55;100686.32;3598295;77;20963;-74
2022/07/07 08:24:01;;;;;;;2.02;0.90;;;;;;;24.54;44.05;100690.75;3612543;77;21000;-74
2022/07/07 08:28:52;;;;;;;2.65;1.00;;;;;;;24.42;43.41;100690.75;3661969;77;20930;-74
2022/07/07 08:33:43;;;;;;;1.72;0.90;;;;;;;25.79;42.02;100691.47;3611364;77;20891;-74
2022/07/07 08:38:34;;;;;;;1.67;0.98;;;;;;;26.12;41.60;100695.28;3647758;77;20949;-74
2022/07/07 08:43:25;;;;;;;1.47;0.98;;;;;;;25.51;40.95;100683.03;3588546;77;20919;-74
2022/07/07 08:48:17;;;;;;;2.70;1.22;;;;;;;24.67;43.17;100685.78;3658053;77;21419;-73
2022/07/07 08:53:12;;;;;;;2.05;1.07;;;;;;;24.97;42.03;100684.93;3614944;77;20982;-74
2022/07/07 08:58:05;;;;;;;1.15;0.72;;;;;;;24.77;42.47;100684.91;3663080;76;20855;-74
2022/07/07 09:02:57;;;;;;;1.02;0.80;;;;;;;24.31;42.83;100687.20;3604405;77;20948;-73
2022/07/07 09:07:52;;;;;;;2.83;0.80;;;;;;;23.96;42.99;100686.80;3595556;77;21447;-73
2022/07/07 09:12:43;;;;;;;2.45;1.02;;;;;;;24.92;42.08;100684.27;3669161;76;21331;-73
2022/07/07 09:17:34;;;;;;;3.60;1.25;;;;;;;24.33;43.19;100689.80;3594608;76;21006;-73
2022/07/07 09:22:50;;;;;;;3.12;1.27;;;;;;;24.19;42.99;100685.04;3622798;75;20904;-73
2022/07/07 09:28:02;;;;;;;2.20;1.00;;;;;;;23.94;42.97;100685.16;3617230;77;20930;-73
2022/07/07 09:32:54;;;;;;;2.10;1.75;;;;;;;23.55;42.85;100673.77;3607409;77;20971;-74
2022/07/07 09:38:36;;;;;;;1.75;0.95;;;;;;;24.32;41.83;100677.43;3662330;77;21368;-74
2022/07/07 09:42:43;;;;;;;0.95;0.78;;;;;;;25.47;41.89;100666.34;3636568;77;20957;-73
2022/07/07 09:47:35;;;;;;;3.80;0.80;;;;;;;24.57;41.15;100677.31;3607350;77;20990;-73
2022/07/07 09:52:27;;;;;;;0.93;0.70;;;;;;;23.44;42.58;100675.50;3672926;77;20968;-73
2022/07/07 09:57:19;;;;;;;7.25;1.00;;;;;;;22.83;44.23;100676.75;3653972;77;20978;-74
2022/07/07 10:02:26;;;;;;;3.08;0.65;;;;;;;22.48;44.57;100681.05;3494846;78;21243;-73
2022/07/07 10:07:19;;;;;;;;;;;;;;;22.30;44.85;100684.70;3567827;78;20872;-75
2022/07/07 10:12:13;;;;;;;3.27;0.88;;;;;;;23.22;43.37;100667.48;3567950;78;20102;-75
2022/07/07 10:17:05;;;;;;;1.27;0.90;;;;;;;26.33;40.16;100674.73;3518014;78;20943;-75
2022/07/07 10:22:00;;;;;;;2.87;1.02;;;;;;;25.36;41.29;100666.83;3549578;77;21489;-75
2022/07/07 10:26:58;;;;;;;2.42;0.70;;;;;;;24.32;42.43;100674.34;3590235;78;21314;-75
2022/07/07 10:31:52;;;;;;;1.30;0.70;;;;;;;23.47;42.63;100673.22;3567635;77;20971;-75
2022/07/07 10:36:54;;;;;;;1.42;1.05;;;;;;;22.72;43.24;100674.08;3487360;79;20978;-76
2022/07/07 10:42:17;;;;;;;3.85;0.88;;;;;;;22.18;44.06;100678.48;3555374;78;20892;-75
2022/07/07 10:47:24;;;;;;;0.82;0.82;;;;;;;21.90;45.14;100675.34;3618183;77;20966;-75
2022/07/07 10:52:22;;;;;;;0.70;0.70;;;;;;;21.95;45.20;100672.11;3581534;78;20979;-75
2022/07/07 10:57:22;;;;;;;1.55;1.05;;;;;;;22.23;44.26;100673.44;3625896;77;20919;-75
2022/07/07 11:02:13;;;;;;;0.80;0.80;;;;;;;22.03;44.69;100675.83;3602409;77;20910;-75
2022/07/07 11:07:16;;;;;;;1.50;0.78;;;;;;;21.86;44.81;100674.58;3651785;77;21476;-75
2022/07/07 11:12:46;;;;;;;2.40;1.20;;;;;;;21.79;45.53;100674.82;3634191;76;20942;-75
2022/07/07 11:17:38;;;;;;;0.90;0.90;;;;;;;21.94;45.62;100665.53;3604161;76;21209;-75
2022/07/07 11:22:34;;;;;;;3.52;1.37;;;;;;;22.32;45.53;100671.42;3640517;77;20977;-75
2022/07/07 11:27:29;;;;;;;2.25;1.00;;;;;;;23.46;45.17;100659.06;3659617;77;20937;-75
2022/07/07 11:32:20;;;;;;;1.10;0.70;;;;;;;23.21;44.26;100661.32;3598019;77;20995;-75
2022/07/07 11:37:27;;;;;;;3.23;0.90;;;;;;;22.85;43.52;100651.52;3692512;77;20886;-75
2022/07/07 11:42:18;;;;;;;2.87;0.80;;;;;;;22.62;44.30;100654.53;3659772;77;21436;-75
2022/07/07 11:47:10;;;;;;;2.12;0.88;;;;;;;22.59;44.10;100654.63;3648078;77;21308;-75
2022/07/07 11:52:01;;;;;;;2.08;1.10;;;;;;;22.74;44.58;100650.57;3627005;77;20953;-75
2022/07/07 11:56:52;;;;;;;3.37;0.80;;;;;;;23.04;43.71;100649.09;3589846;76;21480;-75
2022/07/07 12:01:45;;;;;;;1.75;1.00;;;;;;;24.07;42.73;100645.69;3550386;78;20880;-75
2022/07/07 12:06:36;;;;;;;3.50;0.90;;;;;;;24.74;42.55;100642.91;3591453;77;21285;-74
2022/07/07 12:11:28;;;;;;;1.02;0.93;;;;;;;25.25;41.25;100638.50;3562469;77;20950;-75
2022/07/07 12:16:19;;;;;;;2.12;0.90;;;;;;;25.87;40.93;100640.49;3543392;77;20935;-74
2022/07/07 12:21:13;;;;;;;2.37;0.90;;;;;;;26.01;38.46;100637.20;3596898;78;20928;-75
2022/07/07 12:26:18;;;;;;;0.95;0.70;;;;;;;25.30;39.52;100638.67;3558613;77;20923;-75
2022/07/07 12:31:20;;;;;;;1.55;0.70;;;;;;;24.83;38.85;100640.80;3544727;77;21227;-74
2022/07/07 12:36:24;;;;;;;4.30;1.15;;;;;;;24.39;38.88;100646.17;3585436;78;20966;-74
2022/07/07 12:41:33;;;;;;;3.50;1.20;;;;;;;24.23;39.37;100649.45;3565672;78;20919;-74
2022/07/07 12:46:35;;;;;;;3.42;0.95;;;;;;;24.23;39.46;100638.82;3601210;77;20923;-74
2022/07/07 12:51:28;;;;;;;1.10;0.80;;;;;;;24.28;39.61;100634.19;3609815;77;21438;-74
2022/07/07 12:56:20;;;;;;;1.25;0.90;;;;;;;24.16;39.63;100637.34;3582967;77;21198;-73
2022/07/07 13:01:17;;;;;;;1.95;0.93;;;;;;;24.22;39.68;100629.14;3609111;77;21496;-74
2022/07/07 13:06:08;;;;;;;0.93;0.80;;;;;;;24.67;39.77;100626.83;3643680;77;21583;-75
2022/07/07 13:10:59;;;;;;;1.25;0.90;;;;;;;25.21;39.03;100620.45;3585038;77;21617;-75
2022/07/07 13:15:51;;;;;;;8.55;1.70;;;;;;;25.26;38.58;100618.95;3591516;77;20983;-74
2022/07/07 13:20:42;;;;;;;1.53;0.80;;;;;;;25.66;39.14;100608.61;3565583;77;21638;-75
2022/07/07 13:25:33;;;;;;;1.75;1.00;;;;;;;25.61;38.43;100604.00;3628936;77;21046;-74
2022/07/07 13:30:24;;;;;;;2.77;0.80;;;;;;;24.57;38.25;100612.19;3560131;77;20970;-75
2022/07/07 13:35:18;;;;;;;4.25;1.10;;;;;;;24.02;39.39;100615.36;3634697;77;21501;-75
2022/07/07 13:40:10;;;;;;;1.12;1.02;;;;;;;23.64;39.67;100618.16;3653292;77;20963;-74
2022/07/07 13:45:02;;;;;;;3.70;0.95;;;;;;;23.34;39.67;100618.41;3642521;77;22332;-74
2022/07/07 13:49:55;;;;;;;1.50;1.10;;;;;;;23.38;40.03;100608.95;3650414;77;21037;-74
2022/07/07 13:54:46;;;;;;;2.25;1.10;;;;;;;23.74;40.24;100603.61;3604383;76;20960;-75
2022/07/07 13:59:39;;;;;;;1.20;1.10;;;;;;;24.62;39.95;100590.75;3660412;76;20951;-74
2022/07/07 14:04:30;;;;;;;1.35;1.00;;;;;;;25.41;39.10;100588.95;3610112;75;20977;-75
2022/07/07 14:09:24;;;;;;;1.22;0.90;;;;;;;25.80;39.31;100599.12;3606028;76;21066;-75
2022/07/07 14:14:15;;;;;;;2.70;1.00;;;;;;;26.11;38.56;100575.84;3640832;76;21004;-74
2022/07/07 14:19:07;;;;;;;1.20;0.90;;;;;;;26.18;38.55;100583.92;3638997;77;21540;-74
2022/07/07 14:23:58;;;;;;;1.20;0.90;;;;;;;26.13;37.72;100587.77;3639190;76;21061;-74
2022/07/07 14:28:53;;;;;;;2.67;1.02;;;;;;;26.18;37.78;100577.73;3667296;77;20953;-74
2022/07/07 14:33:42;;;;;;;1.20;1.10;;;;;;;26.41;38.48;100573.91;3637790;76;20978;-75
2022/07/07 14:38:33;;;;;;;1.87;0.90;;;;;;;26.48;36.89;100569.98;3625501;76;21477;-74
2022/07/07 14:43:25;;;;;;;1.17;0.90;;;;;;;26.35;36.64;100575.56;3631919;76;21245;-74
2022/07/07 14:48:16;;;;;;;2.08;1.10;;;;;;;26.28;36.24;100573.67;3631981;76;20930;-74
2022/07/07 14:53:07;;;;;;;2.87;1.30;;;;;;;26.19;36.64;100584.81;3657478;76;21414;-73
2022/07/07 14:57:58;;;;;;;2.77;1.17;;;;;;;25.86;36.79;100583.71;3669245;76;22118;-73
2022/07/07 15:02:50;;;;;;;2.02;0.95;;;;;;;25.55;37.12;100579.47;3638249;77;21425;-73
2022/07/07 15:07:42;;;;;;;3.40;1.07;;;;;;;25.22;37.33;100576.08;3624801;75;20996;-73
2022/07/07 15:12:33;;;;;;;3.22;1.05;;;;;;;25.13;38.11;100577.39;3642402;76;21017;-74
2022/07/07 15:17:26;;;;;;;2.15;1.05;;;;;;;24.60;38.32;100577.52;3623876;75;20914;-74
2022/07/07 15:22:17;;;;;;;2.12;1.10;;;;;;;24.32;38.65;100577.36;3664159;75;21170;-75
2022/07/07 15:27:09;;;;;;;1.20;0.93;;;;;;;23.97;38.88;100572.19;3636485;77;22333;-74
2022/07/07 15:32:00;;;;;;;0.90;0.80;;;;;;;23.71;39.23;100572.73;3660068;77;20960;-75
2022/07/07 15:36:52;;;;;;;3.50;0.80;;;;;;;23.91;39.57;100573.31;3603797;75;20934;-75
2022/07/07 15:41:43;;;;;;;2.05;1.10;;;;;;;23.65;39.26;100568.16;3603594;77;20957;-75
2022/07/07 15:46:35;;;;;;;1.67;0.85;;;;;;;23.49;39.83;100562.11;3593554;75;21022;-76
2022/07/07 15:51:26;;;;;;;4.60;1.17;;;;;;;23.34;39.64;100558.72;3662354;76;20949;-75
2022/07/07 15:56:18;;;;;;;2.35;0.88;;;;;;;23.22;39.63;100572.01;3628197;75;21000;-76
2022/07/07 16:01:10;;;;;;;1.72;0.90;;;;;;;23.15;40.21;100562.08;3606398;77;20924;-75
2022/07/07 16:06:01;;;;;;;2.65;1.17;;;;;;;23.04;40.82;100570.88;3591468;77;21006;-76
2022/07/07 16:10:53;;;;;;;0.93;0.85;;;;;;;22.99;40.87;100564.88;3543191;77;21469;-76
2022/07/07 16:15:44;;;;;;;1.55;0.82;;;;;;;22.92;40.51;100576.63;3597147;77;20982;-76
2022/07/07 16:20:36;;;;;;;1.30;0.80;;;;;;;22.72;40.96;100575.56;3601409;77;20852;-76
2022/07/07 16:25:27;;;;;;;2.80;1.17;;;;;;;22.54;40.42;100574.90;3556164;77;21672;-76
2022/07/07 16:30:18;;;;;;;2.43;0.87;;;;;;;22.41;41.01;100567.38;3579957;77;21094;-76
2022/07/07 16:35:10;;;;;;;3.33;1.15;;;;;;;22.34;41.48;100577.77;3579817;77;22542;-75
2022/07/07 16:40:01;;;;;;;2.83;1.12;;;;;;;22.27;41.99;100577.58;3588486;77;21444;-75
2022/07/07 16:44:53;;;;;;;1.47;0.80;;;;;;;22.24;42.51;100568.37;3629092;77;20934;-76
2022/07/07 16:49:44;;;;;;;1.70;1.00;;;;;;;22.24;42.16;100565.72;3589027;77;21022;-76
2022/07/07 16:54:35;;;;;;;1.20;1.10;;;;;;;22.23;43.08;100567.52;3552171;77;21555;-76
2022/07/07 16:59:27;;;;;;;2.05;0.98;;;;;;;22.29;42.75;100567.79;3564032;76;21093;-76
2022/07/07 17:04:18;;;;;;;4.58;1.20;;;;;;;22.38;43.54;100570.12;3655766;76;21010;-75
2022/07/07 17:09:10;;;;;;;8.40;1.62;;;;;;;22.33;44.03;100563.25;3588731;76;20939;-75
2022/07/07 17:14:02;;;;;;;2.92;0.98;;;;;;;22.23;43.76;100578.54;3661486;76;20990;-75
2022/07/07 17:18:54;;;;;;;2.05;1.02;;;;;;;22.11;43.59;100576.33;3624129;76;21530;-75
2022/07/07 17:23:46;;;;;;;4.47;1.32;;;;;;;22.03;45.15;100584.50;3606623;76;21120;-75
2022/07/07 17:28:38;;;;;;;0.80;0.80;;;;;;;21.95;44.25;100583.44;3591750;76;20931;-75
2022/07/07 17:33:32;;;;;;;1.65;0.85;;;;;;;21.85;45.04;100576.70;3624843;76;21472;-75
2022/07/07 17:38:24;;;;;;;1.25;0.90;;;;;;;21.73;44.99;100579.73;3606718;77;20945;-75
2022/07/07 17:43:16;;;;;;;5.12;1.52;;;;;;;21.59;45.46;100576.22;3620725;77;21350;-75
2022/07/07 17:48:07;;;;;;;2.20;1.37;;;;;;;21.41;46.09;100576.27;3598086;77;21440;-75
2022/07/07 17:52:58;;;;;;;1.47;1.10;;;;;;;21.20;46.01;100579.97;3666035;76;20987;-75
2022/07/07 17:57:49;;;;;;;1.67;1.20;;;;;;;21.01;46.54;100581.41;3557634;76;20950;-75
2022/07/07 18:02:41;;;;;;;2.83;1.12;;;;;;;20.85;46.86;100588.43;3611421;76;20959;-77
2022/07/07 18:07:32;;;;;;;1.65;1.25;;;;;;;20.69;46.84;100587.13;3609459;76;21479;-75
2022/07/07 18:12:24;;;;;;;2.65;1.45;;;;;;;20.51;47.39;100582.73;3642874;76;21268;-75
2022/07/07 18:17:15;;;;;;;1.35;1.00;;;;;;;20.38;49.07;100582.63;3625451;76;20961;-75
2022/07/07 18:22:06;;;;;;;1.05;1.00;;;;;;;20.22;49.80;100581.28;3611689;76;21530;-76
2022/07/07 18:26:58;;;;;;;4.12;1.82;;;;;;;20.04;48.92;100578.19;3638343;76;20932;-75
2022/07/07 18:31:49;;;;;;;1.65;1.15;;;;;;;19.90;51.12;100580.30;3598233;76;20989;-75
2022/07/07 18:36:40;;;;;;;1.90;1.30;;;;;;;19.73;49.77;100583.31;3599508;76;21789;-75
2022/07/07 18:41:31;;;;;;;5.65;1.35;;;;;;;19.57;50.24;100583.64;3620676;76;20969;-75
2022/07/07 18:46:23;;;;;;;3.05;1.10;;;;;;;19.39;50.89;100590.19;3594564;76;21477;-75
2022/07/07 18:56:24;;;;;;;1.77;1.30;;;;;;;19.01;51.79;100590.54;3643193;76;20932;-75
2022/07/07 19:01:15;;;;;;;3.30;1.57;;;;;;;18.86;52.35;100589.52;3601765;75;21891;-75
2022/07/07 19:06:06;;;;;;;5.37;1.87;;;;;;;18.67;52.63;100590.27;3607699;76;20949;-75
2022/07/07 19:11:00;;;;;;;2.33;1.70;;;;;;;18.53;53.14;100605.02;3616168;76;20964;-75
2022/07/07 19:15:53;;;;;;;5.20;1.60;;;;;;;18.41;53.90;100606.55;3691685;76;20931;-75
2022/07/07 19:20:44;;;;;;;5.75;1.47;;;;;;;18.34;55.24;100613.66;3570911;76;20949;-75
2022/07/07 19:25:35;;;;;;;5.08;1.90;;;;;;;18.29;55.46;100616.36;3643846;76;23174;-75
2022/07/07 19:30:27;;;;;;;5.45;1.75;;;;;;;18.19;55.97;100618.75;3599954;77;21003;-75
2022/07/07 19:35:18;;;;;;;3.65;1.60;;;;;;;18.19;56.20;100638.48;3621441;76;20910;-75
2022/07/07 19:40:10;;;;;;;3.95;1.62;;;;;;;18.14;56.53;100636.36;3654134;76;20930;-75
2022/07/07 19:45:02;;;;;;;5.00;1.92;;;;;;;18.03;56.86;100643.56;3638841;75;21462;-74
2022/07/07 19:49:53;;;;;;;7.83;2.10;;;;;;;17.95;56.94;100652.86;3579651;76;21562;-75
2022/07/07 19:54:45;;;;;;;4.15;1.62;;;;;;;17.88;57.31;100654.73;3654871;76;20950;-74
2022/07/07 19:59:37;;;;;;;2.90;1.92;;;;;;;17.77;57.69;100658.35;3629361;76;20917;-75
2022/07/07 20:04:28;;;;;;;3.65;2.00;;;;;;;17.66;58.11;100661.13;3664787;76;21459;-75
2022/07/07 20:09:20;;;;;;;3.65;2.10;;;;;;;17.59;58.51;100660.78;3647878;76;20927;-75
2022/07/07 20:14:11;;;;;;;5.35;2.12;;;;;;;17.50;58.82;100665.25;3657577;76;21977;-75
2022/07/07 20:19:04;;;;;;;4.72;2.02;;;;;;;17.52;59.22;100663.47;3590020;76;20978;-75
2022/07/07 20:23:55;;;;;;;2.62;2.08;;;;;;;17.50;59.32;100665.25;3634560;76;20968;-75
2022/07/07 20:28:46;;;;;;;6.35;2.50;;;;;;;17.43;59.58;100666.22;3575745;76;20976;-75
2022/07/07 20:33:39;;;;;;;7.53;2.22;;;;;;;17.39;60.08;100665.84;3595729;77;20965;-75
2022/07/07 20:38:31;;;;;;;2.52;2.10;;;;;;;17.40;60.20;100674.16;3587521;77;21058;-75
2022/07/07 20:43:24;;;;;;;3.70;2.45;;;;;;;17.34;60.46;100683.41;3643500;77;21686;-75
2022/07/07 20:48:15;;;;;;;3.15;2.10;;;;;;;17.28;60.79;100679.55;3654841;76;20913;-75
2022/07/07 20:53:07;;;;;;;3.95;1.90;;;;;;;17.23;61.09;100686.61;3584726;76;20973;-75
2022/07/07 20:57:59;;;;;;;4.55;2.27;;;;;;;17.21;61.19;100681.83;3623694;77;20953;-75
2022/07/07 21:02:50;;;;;;;2.55;2.35;;;;;;;17.14;61.22;100681.88;3599277;75;21442;-75
2022/07/07 21:07:41;;;;;;;5.80;2.70;;;;;;;17.09;61.54;100686.30;3643131;76;21039;-75
2022/07/07 21:12:32;;;;;;;4.15;2.75;;;;;;;17.03;61.87;100692.95;3650214;75;20935;-75
2022/07/07 21:17:24;;;;;;;4.00;2.60;;;;;;;16.97;62.12;100694.30;3636847;76;22219;-75
2022/07/07 21:22:16;;;;;;;5.50;2.95;;;;;;;16.90;62.24;100695.24;3516564;78;20888;-75
2022/07/07 21:27:10;;;;;;;3.35;2.27;;;;;;;16.81;62.55;100695.30;3510900;79;21074;-75
2022/07/07 21:32:00;;;;;;;4.87;2.60;;;;;;;16.75;62.73;100698.41;3661356;77;21218;-75
2022/07/07 21:36:51;;;;;;;3.12;2.33;;;;;;;16.70;62.90;100706.77;3623094;76;21999;-75
2022/07/07 21:41:42;;;;;;;2.60;2.15;;;;;;;16.65;62.99;100712.52;3630959;77;21068;-75
2022/07/07 21:46:34;;;;;;;5.20;2.67;;;;;;;16.61;63.35;100713.85;3628075;76;20988;-75
2022/07/07 21:51:26;;;;;;;4.42;2.35;;;;;;;16.50;63.54;100716.11;3628851;76;21531;-75
2022/07/07 21:56:17;;;;;;;3.70;2.33;;;;;;;16.43;63.80;100720.11;3637336;76;21281;-75
2022/07/07 22:01:09;;;;;;;3.02;2.60;;;;;;;16.35;64.12;100725.42;3696812;76;20966;-75
2022/07/07 22:11:10;;;;;;;3.45;2.85;;;;;;;16.26;64.63;100722.41;3669974;76;21021;-75
2022/07/07 22:16:09;;;;;;;3.87;3.42;;;;;;;16.21;65.08;100726.81;3635123;76;21035;-75
2022/07/07 22:21:04;;;;;;;3.70;3.40;;;;;;;16.16;65.18;100728.59;3472006;80;20992;-75
2022/07/07 22:25:58;;;;;;;5.67;4.25;;;;;;;16.12;65.39;100734.74;3480257;80;21022;-75
2022/07/07 22:30:49;;;;;;;6.62;4.22;;;;;;;16.03;65.46;100738.28;3413960;80;20980;-75
2022/07/07 22:35:51;;;;;;;6.55;3.87;;;;;;;15.94;65.67;100738.33;3408172;80;21288;-75
2022/07/07 22:40:44;;;;;;;5.72;4.25;;;;;;;15.89;66.28;100737.03;3487195;80;21012;-75
2022/07/07 22:45:35;;;;;;;6.08;4.87;;;;;;;15.89;66.44;100738.34;3455464;81;21430;-75
2022/07/07 22:50:27;;;;;;;8.63;5.67;;;;;;;15.86;66.61;100742.28;3444418;81;21170;-75